الصفحة الرئيسية
METAR-TAF:

METAR-TAF

مطار :

سيول-سيونغنام, كوريا الجنوبية

دائرة عرض: 37-26N, خط طول: 127-07E, ارتفاع: 20 متر

مراقبة الطقس الحالي

ريح 3 عقدة من الغرب/الجنوب الغربي
درجة الحرارة 26°درجة مئوية
الرطوبة 70%
ضغط 1003 hPa
الرؤية 10 كم أو أكثر
غيوم متفرقة على ارتفاع 2000 قدم
غيوم مفككة على ارتفاع 3500 قدم

METAR: RKSM 0028Z 24003KT 9999 SCT020 BKN035 26/20 A2961 RMK CIG035

زمن: 23:22 (14:22 UTC)

توقعات

تاريخ ووقت الإصدار 3ساعات و 22 دقيقة قبل الساعة 11:00UTC
التوقعات صالحة من24 الساعة 12 UTC إلى 25 الساعة 18 UTC
ريح 6 عقدة من الغرب
الرؤية 10 كم أو أكثر
غيوم مفككة على ارتفاع 20000 قدم

TAF: RKSM 241100Z 2412/2518 27006KT 9999 BKN200 TN17/2421Z TX28/2506Z

أرصاد الطقس والتوقعات من أكثر من 4000 مطار (تقارير الطقس للمطار METAR والتنبؤ بالطقس بالمطارTAF).

المحطات المتاحة هي النقط الصفراء والحمراء على الخريطة.

حرك المؤشر فوق النقطة لمعرفة اسم المحطة.

ثم انقر لمعرفة أرصاد وتوقعات الطقس.

لتغيير الخارطة: اضغط على الأزرار الخضراء مع رمز الصليب الأسود للتكبير. على الزر الأخضر مع شرطة للتصغير، أو على الأسهم الخضراء للخرائط المجاورة.


METAR-TAF: